Time;durP1;ratioP1;P1;durP2;ratioP2;P2;SDS_P1;SDS_P2;PMS_P1;PMS_P2;Temp;Humidity;BMP_temperature;BMP_pressure;BME280_temperature;BME280_humidity;BME280_pressure;Samples;Min_cycle;Max_cycle;Signal;HPM_P1;HPM_P2
2021/10/28 00:12:45;;;;;;;70.30;31.47;;;5.40;99.90;;;;;;4394636;28;655686;-78
2021/10/28 00:15:36;;;;;;;67.67;31.53;;;5.40;99.90;;;;;;4411018;28;655163;-78
2021/10/28 00:18:38;;;;;;;67.13;32.42;;;5.40;99.90;;;;;;4407553;28;655143;-78
2021/10/28 00:21:26;;;;;;;70.07;32.20;;;5.40;99.90;;;;;;4406875;28;655271;-78
2021/10/28 00:24:14;;;;;;;73.97;32.17;;;5.40;99.90;;;;;;4432497;28;654902;-78
2021/10/28 00:27:02;;;;;;;67.97;32.00;;;5.40;99.90;;;;;;4404201;28;654280;-78
2021/10/28 00:29:49;;;;;;;60.70;28.20;;;5.30;99.90;;;;;;4426560;28;654219;-78
2021/10/28 00:32:39;;;;;;;60.47;30.10;;;5.30;99.90;;;;;;4396802;28;654536;-78
2021/10/28 00:35:26;;;;;;;63.63;28.80;;;5.30;99.90;;;;;;4403298;28;655210;-79
2021/10/28 00:38:14;;;;;;;66.90;29.93;;;5.30;99.90;;;;;;4429753;28;654732;-78
2021/10/28 00:41:02;;;;;;;63.97;29.33;;;5.20;99.90;;;;;;4400772;28;654467;-78
2021/10/28 00:43:51;;;;;;;60.17;29.20;;;5.20;99.90;;;;;;4426770;28;654297;-78
2021/10/28 00:46:39;;;;;;;64.87;29.77;;;5.20;99.90;;;;;;4404875;28;654545;-78
2021/10/28 00:49:29;;;;;;;67.43;29.87;;;5.20;99.90;;;;;;4409566;28;654490;-78
2021/10/28 00:52:16;;;;;;;67.83;31.90;;;5.20;99.90;;;;;;4401998;28;654371;-78
2021/10/28 00:55:04;;;;;;;68.90;31.93;;;5.20;99.90;;;;;;4422289;28;654943;-78
2021/10/28 00:57:52;;;;;;;66.40;29.73;;;5.20;99.90;;;;;;4402381;28;654793;-78
2021/10/28 01:00:39;;;;;;;66.53;30.63;;;5.20;99.90;;;;;;4434789;28;654815;-77
2021/10/28 01:03:27;;;;;;;65.30;30.13;;;5.10;99.90;;;;;;4411412;28;654832;-77
2021/10/28 01:06:16;;;;;;;65.27;30.07;;;5.10;99.90;;;;;;4428507;28;654924;-78
2021/10/28 01:09:04;;;;;;;64.73;29.67;;;5.00;99.90;;;;;;4391023;28;655174;-78
2021/10/28 01:11:52;;;;;;;60.87;30.33;;;5.00;99.90;;;;;;4401793;28;654691;-78
2021/10/28 01:14:42;;;;;;;62.63;29.47;;;4.90;99.90;;;;;;4418869;28;654825;-77
2021/10/28 01:17:31;;;;;;;62.33;29.45;;;4.90;99.90;;;;;;4430993;28;655233;-78
2021/10/28 01:20:20;;;;;;;65.27;30.10;;;4.90;99.90;;;;;;4412209;28;656306;-78
2021/10/28 01:23:08;;;;;;;72.65;30.52;;;4.90;99.90;;;;;;4409890;28;655508;-78
2021/10/28 01:25:56;;;;;;;69.30;28.43;;;4.90;99.90;;;;;;4397489;28;655656;-78
2021/10/28 01:28:51;;;;;;;66.90;28.80;;;4.80;99.90;;;;;;4427987;28;655900;-77
2021/10/28 01:31:39;;;;;;;56.97;28.08;;;4.80;99.90;;;;;;4413225;28;655419;-77
2021/10/28 01:34:26;;;;;;;61.00;27.77;;;4.70;99.90;;;;;;4413455;28;655655;-78
2021/10/28 01:37:16;;;;;;;64.03;27.87;;;4.70;99.90;;;;;;4431874;28;657028;-77
2021/10/28 01:40:04;;;;;;;64.03;28.33;;;4.70;99.90;;;;;;4407003;28;656139;-78
2021/10/28 01:42:52;;;;;;;61.40;27.77;;;4.70;99.90;;;;;;4409560;28;655571;-78
2021/10/28 01:45:39;;;;;;;58.90;28.15;;;4.70;99.90;;;;;;4432464;28;656774;-77
2021/10/28 01:48:27;;;;;;;61.30;27.40;;;4.60;99.90;;;;;;4413165;28;655703;-77
2021/10/28 01:51:19;;;;;;;52.45;26.08;;;4.60;99.90;;;;;;4434165;28;655518;-77
2021/10/28 01:54:08;;;;;;;54.00;26.20;;;4.60;99.90;;;;;;4410996;28;655795;-77
2021/10/28 01:56:56;;;;;;;54.37;25.63;;;4.60;99.90;;;;;;4409470;28;655627;-78
2021/10/28 01:59:44;;;;;;;61.53;27.40;;;4.50;99.90;;;;;;4435299;28;656806;-78
2021/10/28 02:02:31;;;;;;;56.73;27.63;;;4.50;99.90;;;;;;4412806;28;655521;-77
2021/10/28 02:05:19;;;;;;;53.33;26.40;;;4.50;99.90;;;;;;4430562;28;656486;-78
2021/10/28 02:08:07;;;;;;;57.20;26.90;;;4.50;99.90;;;;;;4408152;28;655587;-78
2021/10/28 02:10:57;;;;;;;60.07;27.77;;;4.50;99.90;;;;;;4432737;28;656249;-77
2021/10/28 02:13:45;;;;;;;50.30;25.27;;;4.50;99.90;;;;;;4434307;28;655425;-77
2021/10/28 02:16:33;;;;;;;60.47;26.90;;;4.50;99.90;;;;;;4411878;28;655755;-78
2021/10/28 02:19:20;;;;;;;55.97;26.47;;;4.40;99.90;;;;;;4420854;28;656352;-77
2021/10/28 02:22:08;;;;;;;59.73;27.30;;;4.40;99.90;;;;;;4434102;28;655431;-77
2021/10/28 02:24:56;;;;;;;60.60;26.73;;;4.40;99.90;;;;;;4415153;28;655576;-77
2021/10/28 02:27:46;;;;;;;58.60;27.27;;;4.40;99.90;;;;;;4448770;28;655636;-77
2021/10/28 02:30:34;;;;;;;57.03;27.87;;;4.30;99.90;;;;;;4430210;28;655598;-77
2021/10/28 02:33:21;;;;;;;58.23;29.53;;;4.30;99.90;;;;;;4429840;28;656579;-77
2021/10/28 02:36:09;;;;;;;50.10;25.80;;;4.30;99.90;;;;;;4446802;28;655677;-77
2021/10/28 02:38:57;;;;;;;61.07;27.00;;;4.30;99.90;;;;;;4428228;28;655775;-77
2021/10/28 02:41:45;;;;;;;61.30;27.90;;;4.30;99.90;;;;;;4449279;28;655156;-77
2021/10/28 02:44:34;;;;;;;57.93;26.17;;;4.30;99.90;;;;;;4424227;28;656585;-77
2021/10/28 02:47:22;;;;;;;52.63;26.27;;;4.30;99.90;;;;;;4419010;28;656075;-77
2021/10/28 02:50:09;;;;;;;56.65;27.48;;;4.20;99.90;;;;;;4437010;28;656115;-77
2021/10/28 02:52:57;;;;;;;58.20;26.77;;;4.20;99.90;;;;;;4428796;28;655686;-77
2021/10/28 02:55:45;;;;;;;59.77;29.83;;;4.20;99.90;;;;;;4452089;28;656145;-77
2021/10/28 02:58:33;;;;;;;59.80;29.70;;;4.10;99.90;;;;;;4428239;28;656593;-77
2021/10/28 03:01:22;;;;;;;50.20;25.00;;;4.10;99.90;;;;;;4419312;28;657894;-77
2021/10/28 03:04:09;;;;;;;55.97;27.03;;;4.10;99.90;;;;;;4449136;28;655265;-78
2021/10/28 03:06:57;;;;;;;60.07;29.60;;;4.20;99.90;;;;;;4411341;28;656094;-78
2021/10/28 03:09:45;;;;;;;61.37;28.23;;;4.10;99.90;;;;;;4442004;28;655600;-77
2021/10/28 03:12:34;;;;;;;59.07;28.63;;;4.10;99.90;;;;;;4424601;28;656661;-77
2021/10/28 03:15:23;;;;;;;56.77;27.80;;;4.10;99.90;;;;;;4428486;28;655918;-77
2021/10/28 03:27:38;;;;;;;61.23;29.03;;;4.00;99.90;;;;;;4369645;28;655827;-77
2021/10/28 03:30:26;;;;;;;63.50;29.10;;;4.00;99.90;;;;;;4390699;28;655840;-77
2021/10/28 03:33:17;;;;;;;60.77;28.07;;;3.90;99.90;;;;;;4412708;28;656420;-78
2021/10/28 03:36:10;;;;;;;56.97;29.00;;;4.00;99.90;;;;;;4390780;28;655486;-76
2021/10/28 03:39:08;;;;;;;57.40;28.23;;;3.90;99.90;;;;;;4367196;28;655584;-77
2021/10/28 03:42:22;;;;;;;55.57;26.57;;;3.90;99.90;;;;;;4369607;28;656892;-77
2021/10/28 03:45:30;;;;;;;58.27;25.43;;;3.90;99.90;;;;;;4385357;28;655426;-76
2021/10/28 03:48:39;;;;;;;57.20;27.13;;;3.90;99.90;;;;;;4389049;28;656255;-77
2021/10/28 04:01:28;;;;;;;51.93;23.50;;;3.80;99.90;;;;;;4406487;28;656598;-77
2021/10/28 04:29:21;;;;;;;46.67;19.90;;;3.60;99.90;;;;;;4269669;29;655653;-77
2021/10/28 04:32:09;;;;;;;35.93;19.03;;;3.50;99.90;;;;;;4304787;29;656197;-76
2021/10/28 04:34:58;;;;;;;42.33;19.63;;;3.50;99.90;;;;;;4282574;29;655216;-76
2021/10/28 04:37:46;;;;;;;37.83;19.73;;;3.50;99.90;;;;;;4282104;29;656170;-77
2021/10/28 04:40:34;;;;;;;41.03;18.63;;;3.50;99.90;;;;;;4302772;29;656020;-76
2021/10/28 04:43:21;;;;;;;39.20;19.67;;;3.50;99.90;;;;;;4284960;29;655497;-76
2021/10/28 04:46:09;;;;;;;39.27;18.33;;;3.50;99.90;;;;;;4300946;29;656797;-77
2021/10/28 04:48:57;;;;;;;33.93;17.50;;;3.40;99.90;;;;;;4403767;28;655344;-76
2021/10/28 04:51:46;;;;;;;36.80;17.83;;;3.40;99.90;;;;;;4434278;28;655749;-76
2021/10/28 04:54:33;;;;;;;33.23;17.37;;;3.50;99.90;;;;;;4404383;28;655905;-76
2021/10/28 04:57:21;;;;;;;36.73;17.37;;;3.40;99.90;;;;;;4410131;28;655922;-76
2021/10/28 05:00:12;;;;;;;31.93;16.90;;;3.40;99.90;;;;;;4432586;28;655784;-76
2021/10/28 05:02:59;;;;;;;33.83;16.37;;;3.40;99.90;;;;;;4409788;28;655296;-76
2021/10/28 05:05:47;;;;;;;34.47;17.70;;;3.40;99.90;;;;;;4395351;28;656337;-76
2021/10/28 05:08:37;;;;;;;30.33;16.03;;;3.30;99.90;;;;;;4417460;28;655359;-77
2021/10/28 05:11:27;;;;;;;33.03;16.73;;;3.30;99.90;;;;;;4423811;28;655127;-76
2021/10/28 05:14:15;;;;;;;38.77;18.00;;;3.30;99.90;;;;;;4391992;28;655277;-75
2021/10/28 05:17:02;;;;;;;38.80;18.40;;;3.30;99.90;;;;;;4399888;28;656653;-76
2021/10/28 05:19:53;;;;;;;39.33;18.50;;;3.30;99.90;;;;;;4432706;28;655398;-75
2021/10/28 05:22:41;;;;;;;34.87;17.33;;;3.30;99.90;;;;;;4389898;28;655616;-76
2021/10/28 05:26:06;;;;;;;35.07;19.07;;;3.30;99.90;;;;;;4441759;28;655849;-75
2021/10/28 05:28:54;;;;;;;35.87;18.70;;;3.30;99.90;;;;;;4433147;28;655722;-74
2021/10/28 05:31:41;;;;;;;30.93;16.93;;;3.30;99.90;;;;;;4430977;28;655601;-75
2021/10/28 05:34:29;;;;;;;36.73;18.83;;;3.30;99.90;;;;;;4456445;28;656507;-75
2021/10/28 05:37:17;;;;;;;34.47;18.40;;;3.30;99.90;;;;;;4432695;28;655734;-75
2021/10/28 05:40:05;;;;;;;40.37;21.00;;;3.20;99.90;;;;;;4455709;28;655156;-75
2021/10/28 05:42:55;;;;;;;49.80;24.23;;;3.30;99.90;;;;;;4424279;28;656903;-74
2021/10/28 05:45:44;;;;;;;41.13;19.33;;;3.30;99.90;;;;;;4426379;28;655726;-75
2021/10/28 05:48:31;;;;;;;36.30;19.67;;;3.30;99.90;;;;;;4421361;28;655734;-76
2021/10/28 05:51:19;;;;;;;307.07;67.83;;;3.40;99.90;;;;;;4440603;28;656157;-76
2021/10/28 05:54:07;;;;;;;127.43;34.87;;;3.40;99.90;;;;;;4414520;28;656892;-75
2021/10/28 05:56:54;;;;;;;307.77;75.40;;;3.40;99.90;;;;;;4438845;28;657516;-76
2021/10/28 05:59:43;;;;;;;287.80;64.23;;;3.40;99.90;;;;;;4417146;28;656589;-75
2021/10/28 06:02:31;;;;;;;171.93;48.03;;;3.40;99.90;;;;;;4422488;28;656844;-76
2021/10/28 06:05:19;;;;;;;174.43;46.03;;;3.50;99.90;;;;;;4447294;28;656718;-76
2021/10/28 06:08:07;;;;;;;363.73;64.43;;;3.50;99.90;;;;;;4421151;28;656472;-76
2021/10/28 06:10:55;;;;;;;418.13;74.87;;;3.60;99.90;;;;;;4446553;28;656575;-76
2021/10/28 06:13:45;;;;;;;230.97;50.73;;;3.60;99.90;;;;;;4415750;28;658055;-75
2021/10/28 06:16:39;;;;;;;151.93;40.27;;;3.70;99.90;;;;;;4416110;28;657079;-76
2021/10/28 06:19:26;;;;;;;196.17;54.90;;;3.80;99.90;;;;;;4421812;28;656659;-76
2021/10/28 06:22:14;;;;;;;168.90;55.23;;;4.00;99.90;;;;;;4441535;28;656753;-76
2021/10/28 06:25:01;;;;;;;508.47;113.90;;;4.00;99.90;;;;;;4426472;28;656858;-77
2021/10/28 06:27:49;;;;;;;178.53;59.77;;;4.10;99.90;;;;;;4439826;28;658125;-76
2021/10/28 06:30:37;;;;;;;427.05;95.13;;;4.20;99.90;;;;;;4419453;28;656925;-76
2021/10/28 06:33:28;;;;;;;185.83;64.13;;;4.30;99.90;;;;;;4442176;28;656248;-75
2021/10/28 06:36:18;;;;;;;199.77;69.00;;;4.50;99.90;;;;;;4386796;28;657676;-76
2021/10/28 06:39:06;;;;;;;176.47;70.97;;;4.60;99.90;;;;;;4418815;28;656371;-76
2021/10/28 06:41:54;;;;;;;211.20;80.43;;;4.80;99.90;;;;;;4438541;28;656470;-76
2021/10/28 06:44:41;;;;;;;170.00;61.37;;;5.00;99.90;;;;;;4426167;28;656611;-74
2021/10/28 06:47:29;;;;;;;133.63;53.03;;;5.20;99.90;;;;;;4437982;28;657171;-75
2021/10/28 06:50:19;;;;;;;101.67;43.20;;;5.40;99.90;;;;;;4428949;28;656825;-75
2021/10/28 06:53:11;;;;;;;90.77;38.23;;;5.60;99.90;;;;;;4429623;28;657210;-75
2021/10/28 06:56:14;;;;;;;70.63;34.53;;;5.80;99.90;;;;;;4422837;28;655632;-75
2021/10/28 07:02:19;;;;;;;80.97;35.13;;;6.20;99.90;;;;;;4431124;28;655716;-76
2021/10/28 07:05:08;;;;;;;81.03;33.90;;;6.30;99.90;;;;;;4425927;28;655432;-76
2021/10/28 07:07:57;;;;;;;66.27;31.67;;;6.50;99.90;;;;;;4431184;28;655104;-76
2021/10/28 07:10:46;;;;;;;62.03;31.20;;;6.70;99.90;;;;;;4448975;28;655598;-75
2021/10/28 07:13:34;;;;;;;48.13;22.90;;;6.80;99.90;;;;;;4425392;28;655836;-75
2021/10/28 07:16:39;;;;;;;46.50;23.13;;;7.00;99.90;;;;;;4427223;28;655331;-76
2021/10/28 07:19:48;;;;;;;46.37;22.23;;;7.20;99.90;;;;;;4422375;28;655558;-76
2021/10/28 07:26:17;;;;;;;40.87;20.63;;;7.60;99.90;;;;;;4334119;28;655826;-76
2021/10/28 07:38:45;;;;;;;38.13;18.27;;;8.40;99.90;;;;;;4371284;28;655256;-76
2021/10/28 07:57:23;;;;;;;23.92;13.32;;;9.70;99.90;;;;;;4368076;28;656783;-76
2021/10/28 08:15:38;;;;;;;18.87;11.27;;;12.00;1.00;;;;;;4333938;28;655416;-76
2021/10/28 08:18:33;;;;;;;18.67;10.43;;;12.40;99.90;;;;;;4315910;28;655857;-77
2021/10/28 08:21:35;;;;;;;19.03;10.17;;;12.60;99.90;;;;;;4313554;28;656475;-77
2021/10/28 08:30:42;;;;;;;17.83;9.33;;;13.80;99.90;;;;;;4336254;28;655921;-77
2021/10/28 08:33:31;;;;;;;14.67;8.43;;;14.10;99.90;;;;;;4357386;28;655558;-76
2021/10/28 08:36:24;;;;;;;19.77;9.77;;;14.30;99.90;;;;;;4365685;28;656185;-77
2021/10/28 08:39:12;;;;;;;12.40;7.80;;;14.60;99.90;;;;;;4356070;28;655377;-75
2021/10/28 08:42:02;;;;;;;13.63;7.75;;;14.90;99.90;;;;;;4368674;28;655216;-77
2021/10/28 08:44:52;;;;;;;11.80;7.30;;;15.20;99.90;;;;;;4402945;28;655712;-76
2021/10/28 08:47:45;;;;;;;15.17;7.50;;;15.60;99.90;;;;;;4412539;28;656113;-77
2021/10/28 08:50:37;;;;;;;13.77;7.10;;;15.80;99.90;;;;;;4391676;28;656048;-77
2021/10/28 08:53:33;;;;;;;14.38;7.50;;;16.10;99.90;;;;;;4401776;28;655536;-76
2021/10/28 08:56:31;;;;;;;13.90;8.17;;;16.30;99.90;;;;;;4403342;28;655569;-77
2021/10/28 08:59:32;;;;;;;12.87;7.13;;;16.60;99.90;;;;;;4417104;28;655854;-77
2021/10/28 09:24:28;;;;;;;20.93;9.33;;;18.70;98.90;;;;;;4394221;28;655592;-76
2021/10/28 09:27:20;;;;;;;15.63;8.47;;;19.20;97.70;;;;;;4390280;28;656339;-77
2021/10/28 09:30:11;;;;;;;15.07;7.90;;;19.40;95.50;;;;;;4422751;28;655723;-76
2021/10/28 09:33:06;;;;;;;15.40;7.33;;;19.60;94.50;;;;;;4416751;28;656155;-76
2021/10/28 09:45:16;;;;;;;11.73;6.63;;;20.00;91.20;;;;;;4422154;28;655749;-76
2021/10/28 09:48:11;;;;;;;12.03;6.50;;;20.00;88.90;;;;;;4411106;28;657355;-77
2021/10/28 09:51:02;;;;;;;10.23;5.93;;;20.20;89.30;;;;;;4414627;28;657113;-76
2021/10/28 09:53:59;;;;;;;13.07;6.33;;;20.40;88.10;;;;;;4414040;28;655308;-76
2021/10/28 09:59:54;;;;;;;14.37;8.30;;;20.50;86.00;;;;;;4391958;28;655566;-76
2021/10/28 10:02:44;;;;;;;13.40;7.07;;;20.10;83.40;;;;;;4416111;28;655625;-77
2021/10/28 10:05:32;;;;;;;12.18;6.63;;;20.80;85.40;;;;;;4411252;28;655461;-76
2021/10/28 10:08:21;;;;;;;14.07;6.80;;;21.40;83.70;;;;;;4434003;28;655336;-76
2021/10/28 10:11:09;;;;;;;13.77;6.87;;;21.40;81.10;;;;;;4415621;28;656065;-76
2021/10/28 10:13:57;;;;;;;10.87;6.47;;;21.60;79.50;;;;;;4421813;28;655694;-76
2021/10/28 10:16:45;;;;;;;13.63;7.40;;;22.00;79.80;;;;;;4444626;28;655692;-76
2021/10/28 10:19:33;;;;;;;13.80;8.07;;;22.40;77.30;;;;;;4418017;28;656110;-77
2021/10/28 10:22:29;;;;;;;14.27;7.73;;;22.30;76.60;;;;;;4425311;28;655799;-76
2021/10/28 10:25:43;;;;;;;13.93;7.30;;;22.40;76.30;;;;;;4422110;28;655669;-77
2021/10/28 11:23:47;;;;;;;13.52;6.78;;;23.50;63.70;;;;;;4394776;28;654615;-77
2021/10/28 11:26:53;;;;;;;10.07;5.43;;;24.10;62.40;;;;;;4383190;28;655800;-78
2021/10/28 12:01:55;;;;;;;10.70;5.35;;;24.90;57.80;;;;;;4249077;29;654562;-78
2021/10/28 12:17:43;;;;;;;8.93;4.30;;;27.40;52.10;;;;;;4215714;29;654495;-78
2021/10/28 12:45:47;;;;;;;6.47;3.85;;;30.10;44.20;;;;;;4268996;29;655378;-77
2021/10/28 12:49:00;;;;;;;8.88;4.30;;;30.60;43.40;;;;;;4299530;28;654536;-77
2021/10/28 12:52:28;;;;;;;6.90;3.90;;;30.10;42.90;;;;;;4298391;28;655115;-77
2021/10/28 13:05:22;;;;;;;8.90;3.83;;;31.30;42.30;;;;;;4322934;28;654760;-78
2021/10/28 13:36:19;;;;;;;4.90;3.17;;;34.70;36.50;;;;;;4326968;28;655142;-78
2021/10/28 13:48:36;;;;;;;6.15;3.22;;;35.10;35.90;;;;;;4390115;28;655253;-77
2021/10/28 13:51:37;;;;;;;5.07;3.03;;;35.10;35.10;;;;;;4397323;28;654908;-77
2021/10/28 13:54:46;;;;;;;5.85;3.25;;;35.00;35.20;;;;;;4402949;28;654666;-79
2021/10/28 13:57:51;;;;;;;5.22;3.05;;;35.50;35.60;;;;;;4396288;28;654428;-78
2021/10/28 14:31:54;;;;;;;5.30;2.97;;;33.40;39.10;;;;;;4298058;28;654812;-76
2021/10/28 15:31:31;;;;;;;17.77;9.33;;;14.70;85.60;;;;;;4256304;29;656851;-75
2021/10/28 15:34:36;;;;;;;29.17;13.57;;;14.30;90.10;;;;;;4269363;29;656191;-76
2021/10/28 15:37:35;;;;;;;32.90;13.87;;;13.90;91.70;;;;;;4271967;29;657331;-76
2021/10/28 15:40:32;;;;;;;41.60;18.80;;;13.60;93.60;;;;;;4271733;29;657971;-75
2021/10/28 16:23:47;;;;;;;60.50;26.87;;;10.30;1.00;;;;;;4323309;28;655706;-76
2021/10/28 16:26:36;;;;;;;54.77;24.67;;;10.20;1.00;;;;;;4359895;28;655676;-76
2021/10/28 16:29:24;;;;;;;101.40;37.97;;;10.00;35.00;;;;;;4339363;28;656358;-76
2021/10/28 16:32:13;;;;;;;62.07;27.50;;;9.90;99.90;;;;;;4336319;28;657830;-76
2021/10/28 16:35:05;;;;;;;56.40;25.13;;;9.70;99.90;;;;;;4339188;28;656125;-76
2021/10/28 16:37:52;;;;;;;48.87;21.63;;;9.60;99.90;;;;;;4330160;28;656511;-76
2021/10/28 16:40:41;;;;;;;44.37;21.87;;;9.50;99.90;;;;;;4342214;28;656239;-76
2021/10/28 16:43:30;;;;;;;54.20;21.53;;;9.40;1.00;;;;;;4360398;28;655882;-76
2021/10/28 16:46:18;;;;;;;48.00;21.50;;;9.30;1.00;;;;;;4333676;28;654581;-76
2021/10/28 16:49:06;;;;;;;46.83;21.10;;;9.20;1.00;;;;;;4337386;28;654599;-76
2021/10/28 16:51:54;;;;;;;41.77;18.07;;;9.20;1.00;;;;;;4358706;28;655389;-75
2021/10/28 16:54:41;;;;;;;53.33;20.60;;;9.10;1.00;;;;;;4339778;28;654596;-75
2021/10/28 16:57:29;;;;;;;53.10;25.33;;;9.10;1.00;;;;;;4353941;28;654736;-76
2021/10/28 17:00:19;;;;;;;51.10;20.50;;;9.00;1.00;;;;;;4347213;28;654967;-76
2021/10/28 17:03:07;;;;;;;43.95;20.92;;;9.00;1.00;;;;;;4418814;28;654802;-76
2021/10/28 17:05:54;;;;;;;51.10;21.63;;;8.90;1.00;;;;;;4450997;28;654934;-75
2021/10/28 17:08:42;;;;;;;47.30;22.07;;;8.90;1.00;;;;;;4431303;28;654655;-76
2021/10/28 17:11:30;;;;;;;61.05;27.10;;;8.80;1.00;;;;;;4443076;28;654422;-76
2021/10/28 17:14:17;;;;;;;68.97;28.00;;;8.70;1.00;;;;;;4424200;28;655260;-76
2021/10/28 17:17:07;;;;;;;58.03;27.03;;;8.70;1.00;;;;;;4448798;28;654816;-76
2021/10/28 17:19:57;;;;;;;61.10;26.57;;;8.70;1.00;;;;;;4444583;28;654021;-76
2021/10/28 17:22:45;;;;;;;64.03;27.43;;;8.60;1.00;;;;;;4422034;28;655287;-76
2021/10/28 17:25:38;;;;;;;76.80;31.47;;;8.70;1.00;;;;;;4421828;28;655648;-76
2021/10/28 17:28:26;;;;;;;58.67;27.33;;;8.70;1.00;;;;;;4414271;28;655642;-76
2021/10/28 17:31:13;;;;;;;65.43;27.83;;;8.80;1.00;;;;;;4451024;28;655384;-76
2021/10/28 17:34:04;;;;;;;55.23;24.33;;;8.70;1.00;;;;;;4430666;28;654638;-76
2021/10/28 17:36:53;;;;;;;83.80;34.73;;;8.70;1.00;;;;;;4418133;28;654452;-76
2021/10/28 17:39:41;;;;;;;93.43;35.70;;;8.70;1.00;;;;;;4427418;28;654584;-76
2021/10/28 17:42:28;;;;;;;78.27;28.87;;;8.70;1.00;;;;;;4447246;28;655389;-76
2021/10/28 17:45:17;;;;;;;75.20;27.23;;;8.70;1.00;;;;;;4420608;28;655136;-77
2021/10/28 17:48:05;;;;;;;72.40;25.40;;;8.70;1.00;;;;;;4437191;28;654316;-76
2021/10/28 17:50:55;;;;;;;61.07;21.30;;;8.60;1.00;;;;;;4412432;28;655444;-76
2021/10/28 17:53:44;;;;;;;66.13;22.83;;;8.60;1.00;;;;;;4419166;28;655898;-76
2021/10/28 17:56:31;;;;;;;55.27;19.93;;;8.60;1.00;;;;;;4418711;28;654601;-68
2021/10/28 17:59:19;;;;;;;45.37;19.03;;;8.60;1.00;;;;;;4441841;28;654442;-67
2021/10/28 18:02:07;;;;;;;60.63;21.23;;;8.60;1.00;;;;;;4424770;28;654592;-68
2021/10/28 18:04:54;;;;;;;71.60;21.97;;;8.60;1.00;;;;;;4443517;28;654011;-68
2021/10/28 18:07:43;;;;;;;59.93;20.10;;;8.60;1.00;;;;;;4409076;28;654994;-67
2021/10/28 18:10:31;;;;;;;56.63;20.30;;;8.60;1.00;;;;;;4418628;28;654409;-68
2021/10/28 18:13:19;;;;;;;56.00;17.90;;;8.60;1.00;;;;;;4430552;28;655956;-67
2021/10/28 18:16:07;;;;;;;47.87;16.80;;;8.60;1.00;;;;;;4429479;28;654567;-66
2021/10/28 18:18:54;;;;;;;58.07;20.90;;;8.50;1.00;;;;;;4439945;28;654379;-68
2021/10/28 18:21:44;;;;;;;51.37;19.27;;;8.50;1.00;;;;;;4418518;28;656043;-68
2021/10/28 18:24:34;;;;;;;56.43;17.00;;;8.50;1.00;;;;;;4422889;28;656018;-67
2021/10/28 18:27:22;;;;;;;46.20;17.20;;;8.60;1.00;;;;;;4402480;28;656396;-67
2021/10/28 18:30:12;;;;;;;44.37;16.87;;;8.60;1.00;;;;;;4426317;28;654592;-68
2021/10/28 18:32:59;;;;;;;51.50;18.93;;;8.60;1.00;;;;;;4403868;28;655121;-67
2021/10/28 18:35:48;;;;;;;50.73;20.43;;;8.60;1.00;;;;;;4402282;28;655813;-68
2021/10/28 18:38:36;;;;;;;41.67;17.17;;;8.60;1.00;;;;;;4409715;28;654655;-67
2021/10/28 18:41:26;;;;;;;68.63;24.50;;;8.60;1.00;;;;;;4424898;28;654896;-67
2021/10/28 18:44:14;;;;;;;68.97;25.30;;;8.60;1.00;;;;;;4402402;28;656040;-67
2021/10/28 18:47:02;;;;;;;66.20;24.93;;;8.60;1.00;;;;;;4402624;28;656691;-68
2021/10/28 18:49:51;;;;;;;65.17;25.37;;;8.60;1.00;;;;;;4425345;28;654730;-68
2021/10/28 18:52:39;;;;;;;74.30;24.60;;;8.60;1.00;;;;;;4402809;28;657507;-68
2021/10/28 18:55:27;;;;;;;69.07;25.63;;;8.60;1.00;;;;;;4405540;28;654808;-67
2021/10/28 18:58:16;;;;;;;70.30;25.43;;;8.60;1.00;;;;;;4427439;28;655473;-68
2021/10/28 19:01:03;;;;;;;58.00;23.70;;;8.70;1.00;;;;;;4405054;28;655346;-67
2021/10/28 19:03:53;;;;;;;65.83;24.63;;;8.70;1.00;;;;;;4408714;28;654817;-67
2021/10/28 19:06:41;;;;;;;60.63;23.23;;;8.70;1.00;;;;;;4405948;28;654986;-67
2021/10/28 19:09:29;;;;;;;61.07;24.07;;;8.70;1.00;;;;;;4425104;28;655603;-68
2021/10/28 19:12:16;;;;;;;62.83;26.00;;;8.70;1.00;;;;;;4408253;28;654363;-68
2021/10/28 19:15:06;;;;;;;63.27;24.47;;;8.70;1.00;;;;;;4431219;28;656778;-77
2021/10/28 19:17:56;;;;;;;54.20;22.13;;;8.70;1.00;;;;;;4406466;28;655761;-76
2021/10/28 19:20:43;;;;;;;61.53;23.97;;;8.70;1.00;;;;;;4408890;28;654772;-77
2021/10/28 19:23:31;;;;;;;55.63;21.80;;;8.60;1.00;;;;;;4409173;28;655086;-76
2021/10/28 19:26:19;;;;;;;64.50;22.70;;;8.60;1.00;;;;;;4447729;28;655658;-76
2021/10/28 19:29:08;;;;;;;55.30;21.80;;;8.60;1.00;;;;;;4421295;28;654709;-76
2021/10/28 19:32:02;;;;;;;54.33;20.97;;;8.50;1.00;;;;;;4431749;28;654547;-76
2021/10/28 19:34:49;;;;;;;50.73;22.53;;;8.50;1.00;;;;;;4430592;28;654858;-76
2021/10/28 19:37:43;;;;;;;71.10;26.97;;;8.40;1.00;;;;;;4425246;28;655339;-76
2021/10/28 19:40:47;;;;;;;66.17;27.63;;;8.30;1.00;;;;;;4427430;28;655478;-76
2021/10/28 19:46:40;;;;;;;58.67;24.33;;;8.30;1.00;;;;;;4428324;28;654628;-76
2021/10/28 19:49:29;;;;;;;44.67;20.03;;;8.30;1.00;;;;;;4421038;28;654990;-76
2021/10/28 19:52:17;;;;;;;49.40;20.33;;;8.20;1.00;;;;;;4425981;28;654619;-77
2021/10/28 19:55:05;;;;;;;61.93;21.53;;;8.10;1.00;;;;;;4448610;28;654142;-76
2021/10/28 19:57:54;;;;;;;53.93;22.17;;;8.00;1.00;;;;;;4426076;28;654581;-76
2021/10/28 20:00:46;;;;;;;61.40;24.93;;;8.00;1.00;;;;;;4425688;28;654538;-76
2021/10/28 20:22:29;;;;;;;109.03;41.63;;;7.60;1.00;;;;;;4273981;29;655190;-76
2021/10/28 20:25:17;;;;;;;86.37;35.80;;;7.60;1.00;;;;;;4270430;29;655595;-76
2021/10/28 20:28:08;;;;;;;81.93;33.27;;;7.60;1.00;;;;;;4255931;29;654988;-76
2021/10/28 20:30:58;;;;;;;88.93;34.97;;;7.60;1.80;;;;;;4258306;29;654935;-76
2021/10/28 20:33:48;;;;;;;75.77;32.57;;;7.60;3.50;;;;;;4259752;29;654710;-76
2021/10/28 20:39:43;;;;;;;68.97;31.30;;;7.50;7.30;;;;;;4237620;29;655462;-75
2021/10/28 20:42:37;;;;;;;79.23;34.13;;;7.50;4.60;;;;;;4260601;29;654087;-77
2021/10/28 20:45:26;;;;;;;78.07;34.90;;;7.50;16.00;;;;;;4264973;29;654192;-76
2021/10/28 20:48:13;;;;;;;96.53;44.03;;;7.50;12.30;;;;;;4262519;29;655989;-76
2021/10/28 20:51:01;;;;;;;118.23;46.47;;;7.50;15.50;;;;;;4263752;29;655488;-75
2021/10/28 20:53:49;;;;;;;118.80;51.40;;;7.50;18.70;;;;;;4336459;28;657302;-76
2021/10/28 20:56:38;;;;;;;134.97;49.23;;;7.50;15.00;;;;;;4382091;28;656757;-76
2021/10/28 20:59:25;;;;;;;126.53;49.67;;;7.50;17.70;;;;;;4409979;28;656332;-76
2021/10/28 21:02:13;;;;;;;127.30;51.60;;;7.40;20.60;;;;;;4427789;28;657040;-77
2021/10/28 21:05:02;;;;;;;162.03;65.83;;;7.40;22.30;;;;;;4406383;28;656425;-76
2021/10/28 21:07:50;;;;;;;136.93;51.13;;;7.40;23.90;;;;;;4430540;28;655592;-76
2021/10/28 21:10:38;;;;;;;200.80;56.53;;;7.40;22.50;;;;;;4404675;28;657316;-77
2021/10/28 21:13:27;;;;;;;122.23;41.67;;;7.40;26.50;;;;;;4409115;28;656892;-76
2021/10/28 21:16:15;;;;;;;89.37;33.07;;;7.40;32.90;;;;;;4424219;28;656708;-76
2021/10/28 21:19:03;;;;;;;90.87;32.97;;;7.30;34.50;;;;;;4426724;28;655704;-77
2021/10/28 21:21:53;;;;;;;54.60;24.93;;;7.20;35.10;;;;;;4407272;28;655774;-77
2021/10/28 21:24:44;;;;;;;60.40;26.77;;;7.20;42.20;;;;;;4419284;28;655621;-77
2021/10/28 21:27:32;;;;;;;61.90;27.33;;;7.10;50.10;;;;;;4407499;28;655680;-77
2021/10/28 21:30:21;;;;;;;70.17;31.30;;;7.10;56.20;;;;;;4435516;28;655493;-76
2021/10/28 21:33:09;;;;;;;169.20;57.63;;;7.10;63.90;;;;;;4404958;28;655737;-77
2021/10/28 21:35:58;;;;;;;146.73;50.50;;;7.10;63.60;;;;;;4409236;28;656554;-77
2021/10/28 21:38:45;;;;;;;80.90;33.50;;;7.00;60.80;;;;;;4420678;28;657220;-77
2021/10/28 21:41:33;;;;;;;86.20;38.27;;;7.00;76.10;;;;;;4429761;28;656976;-76
2021/10/28 21:44:21;;;;;;;71.13;28.83;;;7.10;91.80;;;;;;4412746;28;655443;-77
2021/10/28 21:47:10;;;;;;;106.57;43.33;;;7.10;85.40;;;;;;4432779;28;655989;-77
2021/10/28 21:49:59;;;;;;;64.80;31.90;;;7.00;73.40;;;;;;4407718;28;657015;-77
2021/10/28 21:52:51;;;;;;;64.17;30.03;;;7.00;83.60;;;;;;4406583;28;655284;-77
2021/10/28 21:55:48;;;;;;;60.73;29.13;;;7.00;88.60;;;;;;4413502;28;656714;-77
2021/10/28 21:58:47;;;;;;;62.53;30.23;;;6.90;90.00;;;;;;4411175;28;655468;-77
2021/10/28 22:01:41;;;;;;;58.57;29.40;;;6.90;83.40;;;;;;4401004;28;655669;-77
2021/10/28 22:26:22;;;;;;;55.70;27.00;;;6.60;87.00;;;;;;4410109;28;655453;-77
2021/10/28 22:29:09;;;;;;;56.63;26.47;;;6.50;90.10;;;;;;4431229;28;655331;-76
2021/10/28 22:31:57;;;;;;;51.60;25.27;;;6.50;91.50;;;;;;4412107;28;656193;-77
2021/10/28 22:34:45;;;;;;;60.50;25.90;;;6.40;96.10;;;;;;4435460;28;655831;-77
2021/10/28 22:37:42;;;;;;;58.23;26.53;;;6.40;98.10;;;;;;4413006;28;655468;-77